Calypso — IYQT — position and weather

sailwx.info

Track history (hours):
 
Tides and Currents Weather Stations Pressure Air Temp Water Temp Dewpoint Dewpoint Depression Visibility Wind Speed Wind Dir Waves Ship Positions

Calypso

Last reported at 2016-Jul-24 17:33 UTC. Time now 2016-Jul-24 18:33 UTC.
Position N 38°13' E 015°15'.

Length 32 m; draft 4.2 m.

Type: High speed craft. MMSI: 247143200.

Date/timePositionNaut miles runAvg speedWind from/ knotsBaromVisibWave heightAir tempDewpointWater temp
2016-Jul-24 17:33N 38°13' E 015°15'1110.8
2016-Jul-24 16:34N 38°21' E 015°06'8 7.9
2016-Jul-24 15:33N 38°27' E 014°59'1818.5
2016-Jul-24 14:33N 38°13' E 015°15'0 0.2
2016-Jul-24 13:33N 38°13' E 015°15'1111.0
2016-Jul-24 12:34N 38°22' E 015°07'7 6.2
2016-Jul-24 11:21N 38°25' E 014°58'1821.9
2016-Jul-24 10:33N 38°13' E 015°14'1913.6
2016-Jul-24 09:08N 38°28' E 014°58'814.4
2016-Jul-24 08:33N 38°22' E 015°05'1111.2
2016-Jul-24 07:33N 38°13' E 015°14'0 0.0
2016-Jul-24 06:33N 38°13' E 015°14'1918.5
2016-Jul-24 05:33N 38°27' E 014°59'2 2.2
2016-Jul-24 04:34N 38°29' E 014°59'2 0.2
2016-Jul-23 19:15N 38°28' E 014°57'7 9.6
2016-Jul-23 18:33N 38°23' E 015°03'1413.9
2016-Jul-23 17:33N 38°13' E 015°15'1817.8
2016-Jul-23 16:33N 38°25' E 014°58'0 0.1
2016-Jul-23 15:27N 38°25' E 014°58'1819.5
2016-Jul-23 14:33N 38°13' E 015°14'0 0.0
2016-Jul-23 13:33N 38°13' E 015°14'1812.5
2016-Jul-23 12:07N 38°26' E 014°58'5 6.2
2016-Jul-23 11:16N 38°22' E 015°03'1317.8
2016-Jul-23 10:33N 38°13' E 015°14'17 8.3
2016-Jul-23 08:32N 38°25' E 014°59'1717.2
2016-Jul-23 07:34N 38°13' E 015°14'0 0.0
2016-Jul-22 13:33N 38°13' E 015°15'0 0.0
2016-Jul-22 12:33N 38°13' E 015°15'0 0.0
2016-Jul-22 11:33N 38°13' E 015°15'0 0.0
2016-Jul-22 10:33N 38°13' E 015°15'0 0.0
2016-Jul-22 09:18N 38°13' E 015°15'4 5.3
2016-Jul-22 08:34N 38°16' E 015°18'3433.5
2016-Jul-22 07:33N 38°19' E 014°35'6733.7
2016-Jul-22 05:33N 38°18' E 013°09'3332.9
2016-Jul-22 04:33N 38°07' E 012°29'7 6.7
2016-Jul-22 03:33N 38°01' E 012°31'0 0.0
2016-Jul-21 15:33N 38°01' E 012°31'0 0.4
2016-Jul-21 14:33N 38°01' E 012°31'0 0.0
2016-Jul-21 13:33N 38°01' E 012°31'0 0.0
2016-Jul-21 12:33N 38°01' E 012°31'0 0.0
2016-Jul-21 11:33N 38°01' E 012°31'0 0.0
2016-Jul-21 10:33N 38°01' E 012°31'0 0.0
2016-Jul-21 09:33N 38°01' E 012°31'0 0.0
2016-Jul-21 08:33N 38°01' E 012°31'0 0.0
2016-Jul-21 07:33N 38°01' E 012°31'0 0.0
2016-Jul-21 06:33N 38°01' E 012°31'0 0.0
2016-Jul-20 18:24N 38°01' E 012°31'0 0.0
2016-Jul-20 17:34N 38°01' E 012°31'0 0.0
2016-Jul-20 16:34N 38°01' E 012°31'0 0.0
2016-Jul-20 15:33N 38°01' E 012°31'0 0.0
2016-Jul-20 13:33N 38°01' E 012°31'0 0.0
2016-Jul-20 12:33N 38°01' E 012°31'0 0.0
2016-Jul-20 11:33N 38°01' E 012°31'0 0.0
2016-Jul-20 10:33N 38°01' E 012°31'0 0.0
2016-Jul-20 09:34N 38°01' E 012°31'0 0.0
2016-Jul-20 08:33N 38°01' E 012°31'0 0.0
2016-Jul-20 07:33N 38°01' E 012°31'0 0.0
2016-Jul-20 06:34N 38°01' E 012°31'0 0.0
2016-Jul-19 21:25N 38°01' E 012°31'0 0.0
2016-Jul-19 20:33N 38°01' E 012°31'0 0.0
2016-Jul-19 19:33N 38°01' E 012°31'0 0.0
2016-Jul-19 18:33N 38°01' E 012°31'0 0.0
2016-Jul-19 17:33N 38°01' E 012°31'0 0.0
2016-Jul-19 16:33N 38°01' E 012°31'0 0.0
2016-Jul-19 15:33N 38°01' E 012°31'0 0.0
2016-Jul-19 14:33N 38°01' E 012°31'0 0.0
2016-Jul-19 13:33N 38°01' E 012°31'0 0.0
2016-Jul-19 12:33N 38°01' E 012°31'0 0.0
2016-Jul-19 11:33N 38°01' E 012°31'0 0.0
2016-Jul-19 10:33N 38°01' E 012°31'0 0.0
2016-Jul-19 09:33N 38°01' E 012°31'0 0.0
2016-Jul-19 08:33N 38°01' E 012°31'  
Track history (hours):
 
Tides and Currents Weather Stations Pressure Air Temp Water Temp Dewpoint Dewpoint Depression Visibility Wind Speed Wind Dir Waves Ship Positions

Calypso

Last reported at 2016-Jul-24 17:33 UTC. Time now 2016-Jul-24 18:33 UTC.
Position N 38°13' E 015°15'.

Length 32 m; draft 4.2 m.

Type: High speed craft. MMSI: 247143200.

Date/timePositionNaut miles runAvg speedWind from/ knotsBaromVisibWave heightAir tempDewpointWater temp
2016-Jul-24 17:33N 38°13' E 015°15'1110.8
2016-Jul-24 16:34N 38°21' E 015°06'8 7.9
2016-Jul-24 15:33N 38°27' E 014°59'1818.5
2016-Jul-24 14:33N 38°13' E 015°15'0 0.2
2016-Jul-24 13:33N 38°13' E 015°15'1111.0
2016-Jul-24 12:34N 38°22' E 015°07'7 6.2
2016-Jul-24 11:21N 38°25' E 014°58'1821.9
2016-Jul-24 10:33N 38°13' E 015°14'1913.6
2016-Jul-24 09:08N 38°28' E 014°58'814.4
2016-Jul-24 08:33N 38°22' E 015°05'1111.2
2016-Jul-24 07:33N 38°13' E 015°14'0 0.0
2016-Jul-24 06:33N 38°13' E 015°14'1918.5
2016-Jul-24 05:33N 38°27' E 014°59'2 2.2
2016-Jul-24 04:34N 38°29' E 014°59'2 0.2
2016-Jul-23 19:15N 38°28' E 014°57'7 9.6
2016-Jul-23 18:33N 38°23' E 015°03'1413.9
2016-Jul-23 17:33N 38°13' E 015°15'1817.8
2016-Jul-23 16:33N 38°25' E 014°58'0 0.1
2016-Jul-23 15:27N 38°25' E 014°58'1819.5
2016-Jul-23 14:33N 38°13' E 015°14'0 0.0
2016-Jul-23 13:33N 38°13' E 015°14'1812.5
2016-Jul-23 12:07N 38°26' E 014°58'5 6.2
2016-Jul-23 11:16N 38°22' E 015°03'1317.8
2016-Jul-23 10:33N 38°13' E 015°14'17 8.3
2016-Jul-23 08:32N 38°25' E 014°59'1717.2
2016-Jul-23 07:34N 38°13' E 015°14'0 0.0
2016-Jul-22 13:33N 38°13' E 015°15'0 0.0
2016-Jul-22 12:33N 38°13' E 015°15'0 0.0
2016-Jul-22 11:33N 38°13' E 015°15'0 0.0
2016-Jul-22 10:33N 38°13' E 015°15'0 0.0
2016-Jul-22 09:18N 38°13' E 015°15'4 5.3
2016-Jul-22 08:34N 38°16' E 015°18'3433.5
2016-Jul-22 07:33N 38°19' E 014°35'6733.7
2016-Jul-22 05:33N 38°18' E 013°09'3332.9
2016-Jul-22 04:33N 38°07' E 012°29'7 6.7
2016-Jul-22 03:33N 38°01' E 012°31'0 0.0
2016-Jul-21 15:33N 38°01' E 012°31'0 0.4
2016-Jul-21 14:33N 38°01' E 012°31'0 0.0
2016-Jul-21 13:33N 38°01' E 012°31'0 0.0
2016-Jul-21 12:33N 38°01' E 012°31'0 0.0
2016-Jul-21 11:33N 38°01' E 012°31'0 0.0
2016-Jul-21 10:33N 38°01' E 012°31'0 0.0
2016-Jul-21 09:33N 38°01' E 012°31'0 0.0
2016-Jul-21 08:33N 38°01' E 012°31'0 0.0
2016-Jul-21 07:33N 38°01' E 012°31'0 0.0
2016-Jul-21 06:33N 38°01' E 012°31'0 0.0
2016-Jul-20 18:24N 38°01' E 012°31'0 0.0
2016-Jul-20 17:34N 38°01' E 012°31'0 0.0
2016-Jul-20 16:34N 38°01' E 012°31'0 0.0
2016-Jul-20 15:33N 38°01' E 012°31'0 0.0
2016-Jul-20 13:33N 38°01' E 012°31'0 0.0
2016-Jul-20 12:33N 38°01' E 012°31'0 0.0
2016-Jul-20 11:33N 38°01' E 012°31'0 0.0
2016-Jul-20 10:33N 38°01' E 012°31'0 0.0
2016-Jul-20 09:34N 38°01' E 012°31'0 0.0
2016-Jul-20 08:33N 38°01' E 012°31'0 0.0
2016-Jul-20 07:33N 38°01' E 012°31'0 0.0
2016-Jul-20 06:34N 38°01' E 012°31'0 0.0
2016-Jul-19 21:25N 38°01' E 012°31'0 0.0
2016-Jul-19 20:33N 38°01' E 012°31'0 0.0
2016-Jul-19 19:33N 38°01' E 012°31'0 0.0
2016-Jul-19 18:33N 38°01' E 012°31'0 0.0
2016-Jul-19 17:33N 38°01' E 012°31'0 0.0
2016-Jul-19 16:33N 38°01' E 012°31'0 0.0
2016-Jul-19 15:33N 38°01' E 012°31'0 0.0
2016-Jul-19 14:33N 38°01' E 012°31'0 0.0
2016-Jul-19 13:33N 38°01' E 012°31'0 0.0
2016-Jul-19 12:33N 38°01' E 012°31'0 0.0
2016-Jul-19 11:33N 38°01' E 012°31'0 0.0
2016-Jul-19 10:33N 38°01' E 012°31'0 0.0
2016-Jul-19 09:33N 38°01' E 012°31'0 0.0
2016-Jul-19 08:33N 38°01' E 012°31'  

Dump ship's entire track history